Terminal Aerodrome Forecast
Issued by NWS Albuquerque, NM

Home | Current Version | Previous Version | Text Only | Print | Product List | Glossary On
Versions: 1 2 3 4 5 6 7 8 9 10 11 12 13
000
FTUS45 KABQ 252329
TAFABQ
TAF
KABQ 252329Z 2600/2624 36008KT P6SM FEW090
     FM260300 08014G24KT P6SM SCT250
     FM260600 08022G34KT P6SM SCT050
     FM261600 09015KT P6SM VCSH BKN040=

USA.gov is the U.S. government's official web portal to all federal, state and local government web resources and services.